createdAt,value
2018-06-17T00:00:25.042Z,15.74
2018-06-17T00:01:25.064Z,15.82
2018-06-17T00:02:25.035Z,15.92
2018-06-17T00:03:25.039Z,16.11
2018-06-17T00:04:25.034Z,16.04
2018-06-17T00:05:25.023Z,16.11
2018-06-17T00:06:25.030Z,16.18
2018-06-17T00:07:25.060Z,16.15
2018-06-17T00:08:25.015Z,16.26
2018-06-17T00:09:25.042Z,16.25
2018-06-17T00:10:25.023Z,16.30
2018-06-17T00:11:25.002Z,16.35
2018-06-17T00:12:25.024Z,16.30
2018-06-17T00:13:24.996Z,16.30
2018-06-17T00:14:24.990Z,16.35
2018-06-17T00:15:24.989Z,16.48
2018-06-17T00:16:25.111Z,16.56
2018-06-17T00:17:25.133Z,16.58
2018-06-17T00:18:25.124Z,16.55
2018-06-17T00:19:24.977Z,16.59
2018-06-17T00:20:25.080Z,16.52
2018-06-17T00:21:25.006Z,16.58
2018-06-17T00:22:25.002Z,16.62
2018-06-17T00:23:24.963Z,16.53
2018-06-17T00:24:24.965Z,16.50
2018-06-17T00:25:24.953Z,16.56
2018-06-17T00:26:24.961Z,16.49
2018-06-17T00:27:24.951Z,16.48
2018-06-17T00:28:24.950Z,16.52
2018-06-17T00:29:24.944Z,16.48
2018-06-17T00:30:24.973Z,16.58
2018-06-17T00:31:24.965Z,16.55
2018-06-17T00:32:24.955Z,16.55
2018-06-17T00:33:24.968Z,16.56
2018-06-17T00:34:24.922Z,16.50
2018-06-17T00:35:25.622Z,16.44
2018-06-17T00:36:24.986Z,16.52
2018-06-17T00:37:24.915Z,16.44
2018-06-17T00:38:24.905Z,16.38
2018-06-17T00:39:24.925Z,16.40
2018-06-17T00:40:24.906Z,16.35
2018-06-17T00:41:25.023Z,16.31
2018-06-17T00:42:24.924Z,16.37
2018-06-17T00:43:24.933Z,16.25
2018-06-17T00:44:24.952Z,16.31
2018-06-17T00:45:24.921Z,16.27
2018-06-17T00:46:24.888Z,16.16
2018-06-17T00:47:24.886Z,16.18
2018-06-17T00:48:24.970Z,16.16
2018-06-17T00:49:24.894Z,16.15
2018-06-17T00:50:24.876Z,16.22
2018-06-17T00:51:24.921Z,16.14
2018-06-17T00:52:24.883Z,16.11
2018-06-17T00:53:24.863Z,16.11
2018-06-17T00:54:24.858Z,16.06
2018-06-17T00:55:24.851Z,16.09
2018-06-17T00:56:24.912Z,16.01
2018-06-17T00:57:24.866Z,16.14
2018-06-17T00:58:24.890Z,16.04
2018-06-17T00:59:24.866Z,15.84
2018-06-17T01:00:24.836Z,15.89
2018-06-17T01:01:24.847Z,15.99
2018-06-17T01:02:24.834Z,15.92
2018-06-17T01:03:24.841Z,15.88
2018-06-17T01:04:24.821Z,15.82
2018-06-17T01:05:24.828Z,15.82
2018-06-17T01:06:24.828Z,15.84
2018-06-17T01:07:24.851Z,15.89
2018-06-17T01:08:24.811Z,15.88
2018-06-17T01:09:24.859Z,15.96
2018-06-17T01:10:24.814Z,15.89
2018-06-17T01:11:24.804Z,15.89
2018-06-17T01:12:24.799Z,15.92
2018-06-17T01:13:24.799Z,15.92
2018-06-17T01:14:24.803Z,15.92
2018-06-17T01:15:24.789Z,15.92
2018-06-17T01:16:24.804Z,15.81
2018-06-17T01:17:24.873Z,15.88
2018-06-17T01:18:24.896Z,15.89
2018-06-17T01:19:24.950Z,15.89
2018-06-17T01:20:24.795Z,15.82
2018-06-17T01:21:24.769Z,15.78
2018-06-17T01:22:24.781Z,15.78
2018-06-17T01:23:24.786Z,15.74
2018-06-17T01:24:24.764Z,15.66
2018-06-17T01:25:24.756Z,15.67
2018-06-17T01:26:24.792Z,15.64
2018-06-17T01:27:24.747Z,15.64
2018-06-17T01:28:24.780Z,15.54
2018-06-17T01:29:24.790Z,15.56
2018-06-17T01:30:24.735Z,15.56
2018-06-17T02:04:03.200Z,14.75
2018-06-17T02:05:03.171Z,14.72
2018-06-17T02:06:03.158Z,14.62
2018-06-17T02:07:03.150Z,14.56
2018-06-17T02:08:03.144Z,14.50
2018-06-17T02:09:03.295Z,14.54
2018-06-17T02:10:03.124Z,14.57
2018-06-17T02:11:03.116Z,14.53
2018-06-17T02:12:03.114Z,14.53
2018-06-17T02:13:03.108Z,14.72
2018-06-17T02:14:03.101Z,14.72
2018-06-17T02:15:03.094Z,14.75
2018-06-17T02:16:03.086Z,14.71
2018-06-17T02:17:03.102Z,14.64
2018-06-17T02:18:03.088Z,14.67
2018-06-17T02:19:03.070Z,14.65
2018-06-17T02:20:03.075Z,14.71
2018-06-17T02:21:03.064Z,14.86
2018-06-17T02:22:03.058Z,14.69
2018-06-17T02:23:03.088Z,14.72
2018-06-17T02:24:03.057Z,14.71
2018-06-17T02:25:03.067Z,14.67
2018-06-17T02:26:03.052Z,14.72
2018-06-17T02:27:03.047Z,14.64
2018-06-17T02:28:03.215Z,14.56
2018-06-17T02:29:03.223Z,14.43
2018-06-17T02:30:03.026Z,14.38
2018-06-17T02:31:03.016Z,14.37
2018-06-17T02:32:03.028Z,14.28
2018-06-17T02:33:03.011Z,14.24
2018-06-17T02:34:03.039Z,14.21
2018-06-17T02:35:03.019Z,14.16
2018-06-17T02:36:02.996Z,14.09
2018-06-17T02:37:02.997Z,14.13
2018-06-17T02:38:02.983Z,13.96
2018-06-17T02:39:03.077Z,14.01
2018-06-17T02:40:02.981Z,14.12
2018-06-17T02:41:02.978Z,14.25
2018-06-17T02:42:02.975Z,14.47
2018-06-17T02:43:02.962Z,14.56
2018-06-17T02:44:02.963Z,14.53
2018-06-17T02:45:02.973Z,14.61
2018-06-17T02:46:02.958Z,14.62
2018-06-17T02:47:02.953Z,14.60
2018-06-17T02:48:03.000Z,14.65
2018-06-17T02:49:02.954Z,14.64
2018-06-17T02:50:02.944Z,14.67
2018-06-17T02:51:02.934Z,14.69
2018-06-17T02:52:02.951Z,14.61
2018-06-17T02:53:02.928Z,14.71
2018-06-17T02:54:02.924Z,14.71
2018-06-17T02:55:02.925Z,14.68
2018-06-17T02:56:02.914Z,14.68
2018-06-17T02:57:02.913Z,14.56
2018-06-17T02:58:02.933Z,14.57
2018-06-17T02:59:02.958Z,14.57
2018-06-17T03:00:02.904Z,14.54
2018-06-17T03:01:02.944Z,14.68
2018-06-17T03:02:02.908Z,14.74
2018-06-17T03:03:02.888Z,14.74
2018-06-17T03:04:02.886Z,14.65
2018-06-17T03:05:02.881Z,14.52
2018-06-17T03:06:02.882Z,14.52
2018-06-17T03:07:02.873Z,14.43
2018-06-17T03:08:02.872Z,14.43
2018-06-17T03:09:02.877Z,14.31
2018-06-17T03:10:02.863Z,14.24
2018-06-17T03:11:02.866Z,14.29
2018-06-17T03:12:02.885Z,14.27
2018-06-17T03:13:02.855Z,14.38
2018-06-17T03:14:02.845Z,14.60
2018-06-17T03:15:02.846Z,14.57
2018-06-17T03:16:02.839Z,14.67
2018-06-17T03:17:02.830Z,14.64
2018-06-17T03:18:02.829Z,14.68
2018-06-17T03:19:02.827Z,14.75
2018-06-17T03:20:02.823Z,14.74
2018-06-17T03:21:02.819Z,14.81
2018-06-17T03:22:02.806Z,14.90
2018-06-17T03:23:02.815Z,14.87
2018-06-17T03:24:02.805Z,14.90
2018-06-17T03:25:02.810Z,14.88
2018-06-17T03:26:02.852Z,14.81
2018-06-17T03:27:02.783Z,14.68
2018-06-17T03:28:02.991Z,14.75
2018-06-17T03:29:02.864Z,14.69
2018-06-17T03:30:02.792Z,14.64
2018-06-17T03:31:02.781Z,14.65
2018-06-17T03:32:02.772Z,14.56
2018-06-17T03:33:02.772Z,14.53
2018-06-17T03:34:02.764Z,14.52
2018-06-17T03:35:02.764Z,14.56
2018-06-17T03:36:02.814Z,14.56
2018-06-17T03:37:02.753Z,14.54
2018-06-17T03:38:02.755Z,14.61
2018-06-17T03:39:02.876Z,14.69
2018-06-17T03:40:02.749Z,14.68
2018-06-17T03:41:02.746Z,14.71
2018-06-17T03:42:02.754Z,14.80
2018-06-17T03:43:02.731Z,14.67
2018-06-17T03:44:02.726Z,14.86
2018-06-17T03:45:02.729Z,14.71
2018-06-17T03:46:02.716Z,14.71
2018-06-17T03:47:02.732Z,14.81
2018-06-17T03:48:02.721Z,14.81
2018-06-17T03:49:02.712Z,14.84
2018-06-17T03:50:02.708Z,14.91
2018-06-17T03:51:02.711Z,14.95
2018-06-17T03:52:02.696Z,15.06
2018-06-17T03:53:02.682Z,15.08
2018-06-17T03:54:02.680Z,15.02
2018-06-17T03:55:02.703Z,15.03
2018-06-17T03:56:02.683Z,15.01
2018-06-17T03:57:02.691Z,15.08
2018-06-17T03:58:02.789Z,15.09
2018-06-17T03:59:02.676Z,15.21
2018-06-17T04:00:02.668Z,15.31
2018-06-17T04:01:02.674Z,15.41
2018-06-17T04:02:02.654Z,15.49
2018-06-17T04:03:02.655Z,15.56
2018-06-17T04:04:02.733Z,15.63
2018-06-17T04:05:02.655Z,15.64
2018-06-17T04:06:02.835Z,15.74
2018-06-17T04:07:02.660Z,15.78
2018-06-17T04:08:02.643Z,15.93
2018-06-17T04:09:02.851Z,15.96
2018-06-17T04:10:02.630Z,16.07
2018-06-17T04:11:02.630Z,16.15
2018-06-17T04:12:02.634Z,16.30
2018-06-17T04:13:02.626Z,16.41
2018-06-17T04:14:02.632Z,16.42
2018-06-17T04:15:02.620Z,16.42
2018-06-17T04:16:02.667Z,16.48
2018-06-17T04:17:02.622Z,16.62
2018-06-17T04:18:02.608Z,16.65
2018-06-17T04:19:02.593Z,16.70
2018-06-17T04:20:02.607Z,16.83
2018-06-17T04:21:02.597Z,16.83
2018-06-17T04:22:02.599Z,16.95
2018-06-17T04:23:02.601Z,17.07
2018-06-17T04:24:02.592Z,17.15
2018-06-17T04:25:02.592Z,17.18
2018-06-17T04:26:02.588Z,17.23
2018-06-17T04:27:02.584Z,17.28
2018-06-17T04:28:02.655Z,17.28
2018-06-17T04:29:02.776Z,17.33
2018-06-17T04:30:02.580Z,17.41
2018-06-17T04:31:02.579Z,17.38
2018-06-17T04:32:02.567Z,17.25
2018-06-17T04:33:02.570Z,17.20
2018-06-17T04:34:02.575Z,17.23
2018-06-17T04:35:02.562Z,17.29
2018-06-17T04:36:02.584Z,17.28
2018-06-17T04:37:02.572Z,17.18
2018-06-17T04:38:02.612Z,17.17
2018-06-17T04:39:02.631Z,17.04
2018-06-17T04:40:02.553Z,17.07
2018-06-17T04:41:02.549Z,16.99
2018-06-17T04:42:02.542Z,16.95
2018-06-17T04:43:02.548Z,16.77
2018-06-17T04:44:02.537Z,16.86
2018-06-17T04:45:02.544Z,16.92
2018-06-17T04:46:02.538Z,16.92
2018-06-17T04:47:02.547Z,16.95
2018-06-17T04:48:02.538Z,17.08
2018-06-17T04:49:02.528Z,17.17
2018-06-17T04:50:02.525Z,17.28
2018-06-17T04:51:02.524Z,17.38
2018-06-17T04:52:02.524Z,17.33
2018-06-17T04:53:02.558Z,17.29
2018-06-17T04:54:02.514Z,17.25
2018-06-17T04:55:02.526Z,17.29
2018-06-17T04:56:02.517Z,17.44
2018-06-17T04:57:02.509Z,17.50
2018-06-17T04:58:02.556Z,17.48
2018-06-17T04:59:02.529Z,17.50
2018-06-17T05:00:02.566Z,17.50
2018-06-17T05:01:02.504Z,17.63
2018-06-17T05:02:02.498Z,17.59
2018-06-17T05:03:02.495Z,17.81
2018-06-17T05:04:02.492Z,17.89
2018-06-17T05:05:02.497Z,17.99
2018-06-17T05:06:02.512Z,18.03
2018-06-17T05:07:02.500Z,17.89
2018-06-17T05:08:02.485Z,18.03
2018-06-17T05:09:02.629Z,18.07
2018-06-17T05:10:02.489Z,18.06
2018-06-17T05:11:02.488Z,18.21
2018-06-17T05:12:02.502Z,18.22
2018-06-17T05:13:02.480Z,18.46
2018-06-17T05:14:02.476Z,18.46
2018-06-17T05:15:02.489Z,18.43
2018-06-17T05:16:02.478Z,18.52
2018-06-17T05:17:02.509Z,18.44
2018-06-17T05:18:02.475Z,18.43
2018-06-17T05:19:02.471Z,18.42
2018-06-17T05:20:02.471Z,18.62
2018-06-17T05:21:02.459Z,18.79
2018-06-17T05:22:02.465Z,18.73
2018-06-17T05:23:02.493Z,18.84
2018-06-17T05:24:02.547Z,18.98
2018-06-17T05:25:02.463Z,19.28
2018-06-17T05:26:02.455Z,19.32
2018-06-17T05:27:02.461Z,19.24
2018-06-17T05:28:02.547Z,19.28
2018-06-17T05:29:03.382Z,19.24
2018-06-17T05:30:02.455Z,19.32
2018-06-17T05:31:02.462Z,19.36
2018-06-17T05:32:02.458Z,19.43
2018-06-17T05:33:02.466Z,19.42
2018-06-17T05:34:02.470Z,19.36
2018-06-17T05:35:02.454Z,19.46
2018-06-17T05:36:02.454Z,19.55
2018-06-17T05:37:02.457Z,19.58
2018-06-17T05:38:02.451Z,19.46
2018-06-17T05:39:02.444Z,19.50
2018-06-17T05:40:02.628Z,19.54
2018-06-17T05:41:02.447Z,19.72
2018-06-17T05:42:02.440Z,19.79
2018-06-17T05:43:02.445Z,19.88
2018-06-17T05:44:02.448Z,19.94
2018-06-17T05:45:02.482Z,19.75
2018-06-17T05:46:02.455Z,19.88
2018-06-17T05:47:02.471Z,19.90
2018-06-17T05:48:02.445Z,19.98
2018-06-17T05:49:02.575Z,20.03
2018-06-17T05:50:02.462Z,20.09
2018-06-17T05:51:02.442Z,20.10
2018-06-17T05:52:02.489Z,19.87
2018-06-17T05:53:02.556Z,19.94
2018-06-17T05:54:02.456Z,20.09
2018-06-17T05:55:02.445Z,20.18
2018-06-17T05:56:02.490Z,20.43
2018-06-17T05:57:02.459Z,20.49
2018-06-17T05:58:02.561Z,20.46
2018-06-17T05:59:02.558Z,20.34
2018-06-17T06:00:02.444Z,20.39
2018-06-17T06:01:02.444Z,20.56
2018-06-17T06:02:02.448Z,20.77
2018-06-17T06:03:02.449Z,20.89
2018-06-17T06:04:02.606Z,20.99
2018-06-17T06:05:02.534Z,21.04
2018-06-17T06:06:02.441Z,21.27
2018-06-17T06:07:02.452Z,21.63
2018-06-17T06:08:02.443Z,21.76
2018-06-17T06:09:02.447Z,22.02
2018-06-17T06:10:02.488Z,22.22
2018-06-17T06:11:02.459Z,22.25
2018-06-17T06:12:02.477Z,22.06
2018-06-17T06:13:02.486Z,22.43
2018-06-17T06:14:02.458Z,22.74
2018-06-17T06:16:02.462Z,23.29
2018-06-17T06:17:02.661Z,23.68
2018-06-17T06:18:02.459Z,23.89
2018-06-17T06:19:03.273Z,23.89
2018-06-17T06:20:02.471Z,23.42
2018-06-17T06:21:02.498Z,23.47
2018-06-17T06:22:02.477Z,23.52
2018-06-17T06:23:02.491Z,23.40
2018-06-17T06:24:02.486Z,23.17
2018-06-17T06:25:02.507Z,23.38
2018-06-17T06:26:02.507Z,23.64
2018-06-17T06:27:02.507Z,23.60
2018-06-17T06:28:02.529Z,23.46
2018-06-17T06:29:02.528Z,23.17
2018-06-17T06:30:02.525Z,23.31
2018-06-17T06:31:02.548Z,23.05
2018-06-17T06:32:02.521Z,22.68
2018-06-17T06:33:02.519Z,22.97
2018-06-17T06:34:02.521Z,23.01
2018-06-17T06:35:02.538Z,23.12
2018-06-17T06:36:02.553Z,23.32
2018-06-17T06:37:02.538Z,23.05
2018-06-17T06:38:02.597Z,23.60
2018-06-17T06:39:02.545Z,24.10
2018-06-17T06:40:02.609Z,24.27
2018-06-17T06:41:03.234Z,24.44
2018-06-17T06:42:02.563Z,24.26
2018-06-17T06:43:02.623Z,23.79
2018-06-17T06:44:02.566Z,23.47
2018-06-17T06:45:02.568Z,23.92
2018-06-17T06:46:02.577Z,23.87
2018-06-17T06:47:03.257Z,24.24
2018-06-17T06:48:02.582Z,24.08
2018-06-17T06:49:02.665Z,23.55
2018-06-17T06:50:02.630Z,22.99
2018-06-17T06:51:02.649Z,22.37
2018-06-17T06:52:02.599Z,22.25
2018-06-17T06:53:02.691Z,22.02
2018-06-17T06:54:02.615Z,21.81
2018-06-17T06:55:02.614Z,21.71
2018-06-17T06:56:02.618Z,21.38
2018-06-17T06:57:02.618Z,21.34
2018-06-17T06:58:02.624Z,21.95
2018-06-17T06:59:02.631Z,22.86
2018-06-17T07:00:02.634Z,23.27
2018-06-17T07:01:02.648Z,23.89
2018-06-17T07:02:02.673Z,24.08
2018-06-17T07:03:02.643Z,23.80
2018-06-17T07:04:02.670Z,24.85
2018-06-17T07:05:02.812Z,24.56
2018-06-17T07:06:03.395Z,24.32
2018-06-17T07:07:03.278Z,23.07
2018-06-17T07:08:03.256Z,23.08
2018-06-17T07:09:02.676Z,23.50
2018-06-17T07:10:02.796Z,24.26
2018-06-17T07:11:02.728Z,25.05
2018-06-17T07:12:02.859Z,24.92
2018-06-17T07:13:02.772Z,25.52
2018-06-17T07:14:02.842Z,26.39
2018-06-17T07:15:02.789Z,26.87
2018-06-17T07:16:02.851Z,27.06
2018-06-17T07:17:02.733Z,27.11
2018-06-17T07:18:02.730Z,26.40
2018-06-17T07:19:02.750Z,26.86
2018-06-17T07:20:02.743Z,26.58
2018-06-17T07:21:02.757Z,26.09
2018-06-17T07:23:30.565Z,26.06
2018-06-17T08:24:34.111Z,27.89
2018-06-17T08:25:59.746Z,28.53
2018-06-17T14:04:19.356Z,24.73
2018-06-17T14:05:39.944Z,25.00
2018-06-17T16:26:38.350Z,22.29
2018-06-17T22:12:47.321Z,15.64
